createdAt,value
2022-12-18T00:04:25.509Z,2.30
2022-12-18T00:09:40.565Z,2.40
2022-12-18T00:14:44.193Z,1.68
2022-12-18T00:19:57.574Z,1.03
2022-12-18T00:25:01.136Z,2.18
2022-12-18T00:30:04.887Z,1.85
2022-12-18T00:35:08.928Z,1.50
2022-12-18T00:40:22.578Z,1.48
2022-12-18T00:45:32.293Z,2.04
2022-12-18T00:50:36.157Z,1.78
2022-12-18T00:55:41.500Z,1.03
2022-12-18T01:00:45.650Z,1.75
2022-12-18T01:05:49.317Z,1.55
2022-12-18T01:10:52.827Z,1.47
2022-12-18T01:15:56.526Z,1.10
2022-12-18T01:21:01.070Z,1.79
2022-12-18T01:26:14.431Z,1.42
2022-12-18T01:31:22.251Z,1.77
2022-12-18T01:36:29.083Z,1.58
2022-12-18T01:41:54.035Z,0.68
2022-12-18T01:46:57.582Z,1.73
2022-12-18T01:52:01.276Z,1.37
2022-12-18T01:57:04.997Z,0.83
2022-12-18T02:02:09.936Z,0.73
2022-12-18T02:07:31.930Z,1.70
2022-12-18T02:13:12.479Z,1.56
2022-12-18T02:18:28.250Z,1.65
2022-12-18T02:23:47.694Z,1.71
2022-12-18T02:28:57.861Z,1.67
2022-12-18T02:34:05.382Z,1.59
2022-12-18T02:39:22.759Z,0.92
2022-12-18T02:44:26.212Z,1.46
2022-12-18T02:49:55.162Z,1.50
2022-12-18T02:55:36.224Z,1.60
2022-12-18T03:00:58.257Z,1.45
2022-12-18T03:06:20.258Z,1.24
2022-12-18T03:11:50.188Z,0.90
2022-12-18T03:17:00.050Z,1.05
2022-12-18T03:22:06.812Z,0.80
2022-12-18T03:27:16.743Z,0.67
2022-12-18T03:32:28.875Z,1.49
2022-12-18T03:37:32.313Z,0.94
2022-12-18T03:42:55.608Z,1.02
2022-12-18T03:48:32.055Z,1.45
2022-12-18T03:53:56.260Z,1.44
2022-12-18T03:59:02.526Z,1.16
2022-12-18T04:04:07.775Z,1.24
2022-12-18T04:09:11.434Z,1.24
2022-12-18T04:14:18.012Z,1.19
2022-12-18T04:19:22.169Z,1.12
2022-12-18T04:24:25.810Z,1.27
2022-12-18T04:29:29.221Z,0.64
2022-12-18T04:34:32.831Z,0.71
2022-12-18T04:39:37.702Z,1.28
2022-12-18T04:44:42.144Z,0.90
2022-12-18T04:49:45.569Z,1.24
2022-12-18T04:54:49.036Z,1.04
2022-12-18T04:59:52.603Z,1.24
2022-12-18T05:04:56.277Z,0.90
2022-12-18T05:09:59.705Z,0.72
2022-12-18T05:15:06.498Z,1.23
2022-12-18T05:20:10.476Z,0.73
2022-12-18T05:25:13.936Z,0.90
2022-12-18T05:30:18.212Z,1.22
2022-12-18T05:35:24.027Z,0.55
2022-12-18T05:40:27.530Z,1.04
2022-12-18T05:45:32.005Z,-0.41
2022-12-18T05:50:37.707Z,1.09
2022-12-18T05:55:42.648Z,1.07
2022-12-18T06:00:47.942Z,0.89
2022-12-18T06:05:51.741Z,0.51
2022-12-18T06:10:55.308Z,0.47
2022-12-18T06:15:58.832Z,0.11
2022-12-18T06:21:12.468Z,-0.40
2022-12-18T06:26:16.911Z,0.73
2022-12-18T06:31:20.299Z,0.43
2022-12-18T06:36:24.143Z,0.80
2022-12-18T06:41:27.723Z,0.77
2022-12-18T06:46:31.087Z,0.80
2022-12-18T06:51:35.186Z,0.75
2022-12-18T06:56:38.549Z,0.57
2022-12-18T07:01:42.230Z,0.75
2022-12-18T07:06:45.671Z,0.29
2022-12-18T07:11:49.066Z,-0.40
2022-12-18T07:16:52.451Z,0.59
2022-12-18T07:21:57.170Z,0.80
2022-12-18T07:27:00.585Z,0.58
2022-12-18T07:32:04.038Z,0.65
2022-12-18T07:37:07.506Z,0.84
2022-12-18T07:42:29.279Z,0.86
2022-12-18T07:47:36.298Z,0.70
2022-12-18T07:52:49.648Z,0.50
2022-12-18T07:57:56.549Z,0.48
2022-12-18T08:03:04.235Z,0.72
2022-12-18T08:08:07.717Z,1.21
2022-12-18T08:13:11.048Z,1.22
2022-12-18T08:18:14.723Z,1.27
2022-12-18T08:23:18.210Z,0.67
2022-12-18T08:28:21.556Z,1.21
2022-12-18T08:33:25.327Z,1.26
2022-12-18T08:38:28.775Z,1.41
2022-12-18T08:43:50.772Z,1.54
2022-12-18T08:49:05.112Z,1.48
2022-12-18T08:54:08.940Z,1.58
2022-12-18T08:59:19.199Z,0.44
2022-12-18T09:04:24.415Z,1.30
2022-12-18T09:09:28.730Z,1.48
2022-12-18T09:14:32.115Z,1.46
2022-12-18T09:19:35.551Z,1.55
2022-12-18T09:24:56.907Z,1.59
2022-12-18T09:30:00.512Z,1.38
2022-12-18T09:35:04.249Z,1.90
2022-12-18T09:40:08.097Z,1.62
2022-12-18T09:45:16.742Z,1.27
2022-12-18T09:50:35.355Z,2.02
2022-12-18T09:55:43.908Z,1.78
2022-12-18T10:00:47.789Z,2.23
2022-12-18T10:06:25.779Z,2.25
2022-12-18T10:11:36.276Z,2.23
2022-12-18T10:16:45.505Z,1.97
2022-12-18T10:22:04.005Z,2.07
2022-12-18T10:27:18.811Z,2.52
2022-12-18T10:32:25.400Z,2.43
2022-12-18T10:37:31.196Z,2.44
2022-12-18T10:42:34.922Z,1.45
2022-12-18T10:47:43.451Z,2.60
2022-12-18T10:52:57.172Z,2.46
2022-12-18T10:58:26.604Z,2.81
2022-12-18T11:03:39.304Z,2.88
2022-12-18T11:09:00.270Z,2.80
2022-12-18T11:14:14.399Z,2.98
2022-12-18T11:19:37.285Z,2.86
2022-12-18T11:30:30.914Z,3.13
2022-12-18T11:35:37.839Z,2.88
2022-12-18T11:40:45.964Z,3.33
2022-12-18T11:45:58.999Z,2.56
2022-12-18T11:51:05.695Z,2.73
2022-12-18T11:56:12.539Z,2.90
2022-12-18T12:01:40.348Z,3.08
2022-12-18T12:07:18.950Z,2.97
2022-12-18T12:12:49.056Z,2.86
2022-12-18T12:18:30.967Z,3.02
2022-12-18T12:23:40.167Z,3.18
2022-12-18T12:29:04.544Z,3.19
2022-12-18T12:34:28.340Z,2.75
2022-12-18T12:39:39.275Z,2.46
2022-12-18T12:44:56.284Z,2.51
2022-12-18T12:55:36.091Z,2.56
2022-12-18T13:00:56.571Z,2.39
2022-12-18T13:06:11.286Z,2.52
2022-12-18T13:11:59.712Z,1.76
2022-12-18T13:13:43.572Z,2.65
2022-12-18T13:17:23.065Z,2.44
2022-12-18T13:22:33.665Z,1.73
2022-12-18T13:27:47.318Z,2.25
2022-12-18T13:33:16.998Z,2.13
2022-12-18T13:38:32.978Z,2.24
2022-12-18T13:43:48.553Z,2.17
2022-12-18T13:49:03.460Z,2.12
2022-12-18T13:54:23.207Z,1.94
2022-12-18T13:59:28.624Z,1.74
2022-12-18T14:04:37.376Z,1.69
2022-12-18T14:09:47.883Z,1.41
2022-12-18T14:14:55.301Z,1.50
2022-12-18T14:19:59.794Z,0.98
2022-12-18T14:25:19.048Z,1.29
2022-12-18T14:30:26.051Z,1.25
2022-12-18T14:35:29.880Z,1.03
2022-12-18T14:40:33.775Z,-0.04
2022-12-18T14:45:48.316Z,0.53
2022-12-18T14:51:25.423Z,0.66
2022-12-18T14:56:33.958Z,0.76
2022-12-18T15:01:41.374Z,0.26
2022-12-18T15:06:45.547Z,0.59
2022-12-18T15:11:49.583Z,0.50
2022-12-18T15:16:55.904Z,0.52
2022-12-18T15:22:05.944Z,0.26
2022-12-18T15:27:23.077Z,0.32
2022-12-18T15:32:29.143Z,0.31
2022-12-18T15:37:32.603Z,-0.27
2022-12-18T15:42:54.896Z,-0.64
2022-12-18T15:47:59.467Z,-0.33
2022-12-18T15:53:02.942Z,-0.13
2022-12-18T15:58:10.650Z,0.21
2022-12-18T16:03:14.301Z,0.13
2022-12-18T16:08:18.059Z,-1.22
2022-12-18T16:13:22.145Z,0.14
2022-12-18T16:18:25.846Z,-0.55
2022-12-18T16:23:39.526Z,-0.20
2022-12-18T16:28:48.233Z,0.03
2022-12-18T16:34:11.033Z,-0.16
2022-12-18T16:39:14.611Z,-0.90
2022-12-18T16:44:18.992Z,-0.18
2022-12-18T16:49:23.436Z,-1.08
2022-12-18T16:54:26.995Z,-1.01
2022-12-18T16:59:30.746Z,-0.02
2022-12-18T17:04:35.022Z,-0.35
2022-12-18T17:09:39.358Z,-0.03
2022-12-18T17:14:43.064Z,-1.51
2022-12-18T17:19:46.589Z,-0.83
2022-12-18T17:24:50.305Z,-0.92
2022-12-18T17:29:55.218Z,-0.08
2022-12-18T17:35:01.500Z,-1.08
2022-12-18T17:40:19.249Z,-0.20
2022-12-18T17:45:22.994Z,-0.68
2022-12-18T17:50:26.676Z,-0.33
2022-12-18T17:55:30.975Z,-1.12
2022-12-18T18:00:34.692Z,-0.43
2022-12-18T18:05:38.471Z,-1.01
2022-12-18T18:10:42.139Z,-0.23
2022-12-18T18:15:45.685Z,-0.23
2022-12-18T18:20:49.363Z,-1.63
2022-12-18T18:25:52.782Z,-1.98
2022-12-18T18:30:57.024Z,-1.38
2022-12-18T18:36:00.759Z,-0.56
2022-12-18T18:41:05.844Z,-0.35
2022-12-18T18:46:13.523Z,-0.73
2022-12-18T18:51:31.537Z,-1.17
2022-12-18T18:57:18.759Z,-0.29
2022-12-18T19:02:04.758Z,-1.78
2022-12-18T19:07:09.049Z,-0.24
2022-12-18T19:12:31.318Z,-0.28
2022-12-18T19:17:35.010Z,-0.26
2022-12-18T19:22:38.649Z,-0.28
2022-12-18T19:27:42.263Z,-0.57
2022-12-18T19:32:46.270Z,-1.63
2022-12-18T19:37:50.213Z,-1.31
2022-12-18T19:42:54.128Z,-1.03
2022-12-18T19:48:03.937Z,-0.40
2022-12-18T19:53:07.975Z,-2.15
2022-12-18T19:58:13.281Z,-0.45
2022-12-18T20:03:27.216Z,-0.84
2022-12-18T20:08:37.577Z,-0.89
2022-12-18T20:13:41.606Z,-0.92
2022-12-18T20:18:51.670Z,-1.29
2022-12-18T20:23:56.919Z,-1.25
2022-12-18T20:29:00.607Z,-0.60
2022-12-18T20:34:06.188Z,-0.52
2022-12-18T20:39:12.307Z,-0.90
2022-12-18T20:44:22.820Z,-1.16
2022-12-18T20:49:28.260Z,-1.14
2022-12-18T20:54:32.278Z,-2.11
2022-12-18T20:59:35.787Z,-0.50
2022-12-18T21:04:39.499Z,-0.93
2022-12-18T21:09:42.905Z,-1.08
2022-12-18T21:14:47.094Z,-0.99
2022-12-18T21:19:51.782Z,-1.27
2022-12-18T21:24:55.600Z,-1.05
2022-12-18T21:29:59.005Z,-0.81
2022-12-18T21:35:02.643Z,-1.20
2022-12-18T21:40:16.082Z,-1.06
2022-12-18T21:45:19.532Z,-0.60
2022-12-18T21:50:23.084Z,-1.11
2022-12-18T21:55:26.913Z,-1.06
2022-12-18T22:00:30.368Z,-0.68
2022-12-18T22:05:42.255Z,-1.35
2022-12-18T22:10:45.656Z,-2.21
2022-12-18T22:15:59.083Z,-1.15
2022-12-18T22:21:04.077Z,-0.57
2022-12-18T22:26:08.415Z,-1.01
2022-12-18T22:31:11.987Z,-1.17
2022-12-18T22:36:15.475Z,-0.76
2022-12-18T22:41:21.023Z,-0.69
2022-12-18T22:46:26.513Z,-0.87
2022-12-18T22:51:30.606Z,-1.01
2022-12-18T22:56:34.392Z,-0.91
2022-12-18T23:01:37.830Z,-1.00
2022-12-18T23:06:44.266Z,-0.54
2022-12-18T23:11:48.831Z,-1.15
2022-12-18T23:16:53.078Z,-0.59
2022-12-18T23:21:58.322Z,-0.75
2022-12-18T23:27:01.807Z,-0.81
2022-12-18T23:32:08.867Z,-0.55
2022-12-18T23:37:49.846Z,-0.78
2022-12-18T23:42:45.406Z,-1.59
2022-12-18T23:47:50.912Z,-0.80
2022-12-18T23:52:54.778Z,-0.95
2022-12-18T23:57:58.219Z,-1.25
